Terminal Aerodrome Forecast
Issued by NWS Northern Indiana

Home | Current Version | Previous Version | Graphics & Text | Print | Product List | Glossary On
Versions: 1 2 3 4 5 6 7 8 9 10 11 12 13 14 15 16
356
FTUS43 KIWX 151138
TAFFWA
TAF
KFWA 151138Z 1512/1612 13010KT 2SM -SN BR OVC030
     FM151500 16012KT 1 1/2SM -SN BR OVC015
      TEMPO 1516/1520 3/4SM -SN BR BKN008
     FM152100 22009KT 5SM -SN OVC015
     FM160000 24010KT P6SM OVC025=

USA.gov is the U.S. government's official web portal to all federal, state and local government web resources and services.